Area De Material, Argentina

5:06 PM ART on August 28, 2015 (GMT -0300)
Rio Cuarto Centro | | Change Station
CLOSE
Current Station
Personal Weather Station
Location: Río Cuarto, CóRDOBA
Elevation: 1460 ft
Nearby Weather Stations

Elev 1460 ft 33.12 °S, 64.35 °W | Updated 7 minutes ago

Clear
Clear
94.6 °F
Feels Like 91 °F
N
5.3
Wind Variable Wind from East

Today
High -- | Low -- °F
--% Chance of Precip.
Yesterday
High -- | Low -- °F
Precip. -- in
7:40 AM 6:57 PM
Waxing Gibbous, 99% visible
Pressure 29.65 in
Visibility -9999.0 miles
Clouds
Heat Index 91 °F
Dew Point 43 °F
Humidity 17%
Rainfall 0.00 in
Snow Depth Not available.
UV Not available.
Pollen Not available.
Air Quality Not available.
Flu Activity Not available.
METAR SAOC 281900Z 36008KT CAVOK 34/02 Q1004
Pressure 29.65 in
Visibility -9999.0 miles
Clouds
Heat Index 91 °F
Dew Point 43 °F
Humidity 17%
Rainfall 0.00 in
Snow Depth Not available.
UV Not available.
Pollen Not available.
Air Quality Not available.
Flu Activity Not available.
METAR SAOC 281900Z 36008KT CAVOK 34/02 Q1004

10-Day Weather Forecast

×

Almanac

Astronomy

Aug. 28, 2015 Rise Set
Actual Time
Civil Twilight
Nautical Twilight
Astronomical Twilight
Moon
Length of Visible Light
Length of Day
Tomorrow will be .
, % of the Moon is Illuminated

Today's Extremes

Country Highs Country Lows

Community

WunderPhotos

Upload Photos

1,850,467 photos uploaded!

WunderBlogs® & News

Nearby

Air Quality

  Air Quality AQ Index Pollutant
Not available.

Snow Depth

Station Depth Elevation

Earthquake Activity

City Distance Mag. Time & Date
Minimum magnitude displayed is 2.5.

Coastal Water Temperatures

Place Temperature

Stations

Nearby Weather Stations

Station Location Temp. Windchill Dew Point Humidity Wind Precip. Elev Updated Type